Time;durP1;ratioP1;P1;durP2;ratioP2;P2;SDS_P1;SDS_P2;PMS_P1;PMS_P2;Temp;Humidity;BMP_temperature;BMP_pressure;BME280_temperature;BME280_humidity;BME280_pressure;Samples;Min_cycle;Max_cycle;Signal;HPM_P1;HPM_P2
2023/02/10 00:01:18;;;;;;;0.80;0.80;;;1.10;99.90;;;;;;5052840;28;20033;-86
2023/02/10 00:03:44;;;;;;;0.85;0.85;;;0.80;99.90;;;;;;5035945;28;20141;-85
2023/02/10 00:06:11;;;;;;;1.17;1.17;;;0.80;99.90;;;;;;5019127;28;20068;-87
2023/02/10 00:08:37;;;;;;;0.63;0.63;;;0.80;99.90;;;;;;5053478;28;20064;-86
2023/02/10 00:11:06;;;;;;;0.60;0.60;;;0.90;99.90;;;;;;5037070;28;20048;-88
2023/02/10 00:13:33;;;;;;;0.75;0.75;;;2.20;99.90;;;;;;5042945;28;20044;-87
2023/02/10 00:16:00;;;;;;;0.80;0.80;;;0.90;99.90;;;;;;5021072;28;20041;-89
2023/02/10 00:18:26;;;;;;;0.80;0.80;;;1.20;99.90;;;;;;5038491;28;20041;-88
2023/02/10 00:20:52;;;;;;;;;;;2.40;99.90;;;;;;5021382;28;20033;-87
2023/02/10 00:23:18;;;;;;;0.77;0.77;;;1.30;99.90;;;;;;5036278;28;20370;-87
2023/02/10 00:25:43;;;;;;;0.70;0.70;;;0.90;99.90;;;;;;5003782;28;20041;-88
2023/02/10 00:28:09;;;;;;;0.82;0.82;;;0.90;99.90;;;;;;5019882;28;20615;-91
2023/02/10 00:30:35;;;;;;;1.02;1.02;;;2.30;99.90;;;;;;5039679;28;20041;-90
2023/02/10 00:33:01;;;;;;;0.93;0.93;;;1.60;99.90;;;;;;5009161;28;20045;-89
2023/02/10 00:35:27;;;;;;;1.30;1.30;;;0.80;99.90;;;;;;5040423;28;20037;-90
2023/02/10 00:37:52;;;;;;;0.88;0.88;;;1.60;99.90;;;;;;5039397;28;20403;-90
2023/02/10 00:40:18;;;;;;;0.70;0.70;;;1.80;99.90;;;;;;5029775;28;20044;-89
2023/02/10 00:42:44;;;;;;;0.60;0.60;;;0.90;99.90;;;;;;5035815;28;20034;-90
2023/02/10 00:45:10;;;;;;;0.70;0.70;;;2.20;99.90;;;;;;5054676;28;20045;-90
2023/02/10 00:47:36;;;;;;;;;;;0.90;99.90;;;;;;5055052;28;20044;-90
2023/02/10 00:50:02;;;;;;;0.80;0.80;;;0.90;99.90;;;;;;5043544;28;19917;-93
2023/02/10 00:52:28;;;;;;;0.77;0.77;;;0.90;99.90;;;;;;5032677;28;20046;-90
2023/02/10 00:54:56;;;;;;;0.70;0.70;;;0.90;99.90;;;;;;5054996;28;20056;-92
2023/02/10 00:57:22;;;;;;;0.70;0.70;;;2.20;99.90;;;;;;5040416;28;20057;-93
2023/02/10 00:59:47;;;;;;;0.70;0.70;;;1.00;99.90;;;;;;5022973;28;20199;-93
2023/02/10 01:02:13;;;;;;;0.75;0.75;;;2.30;99.90;;;;;;5047436;28;20127;-89
2023/02/10 01:04:39;;;;;;;0.65;0.65;;;1.40;99.90;;;;;;5012242;28;20047;-89
2023/02/10 01:07:05;;;;;;;0.70;0.70;;;1.20;99.90;;;;;;5019822;28;20438;-87
2023/02/10 01:09:30;;;;;;;1.10;1.10;;;0.10;99.90;;;;;;5031429;28;20037;-86
2023/02/10 01:11:56;;;;;;;1.05;1.05;;;1.00;99.90;;;;;;5034823;28;20048;-85
2023/02/10 01:14:22;;;;;;;0.70;0.70;;;1.00;99.90;;;;;;5033947;28;20426;-86
2023/02/10 01:16:48;;;;;;;0.70;0.70;;;1.70;99.90;;;;;;5050853;28;20728;-86
2023/02/10 01:19:14;;;;;;;2.97;2.75;;;1.90;99.90;;;;;;5023539;28;20041;-86
2023/02/10 01:21:40;;;;;;;0.70;0.70;;;2.00;99.90;;;;;;5028444;28;20036;-85
2023/02/10 01:24:06;;;;;;;0.68;0.68;;;1.00;99.90;;;;;;5051592;28;20056;-86
2023/02/10 01:26:33;;;;;;;0.88;0.88;;;0.90;99.90;;;;;;5035030;28;20041;-88
2023/02/10 01:29:00;;;;;;;0.70;0.70;;;2.20;99.90;;;;;;5054829;28;20052;-89
2023/02/10 01:31:26;;;;;;;0.73;0.73;;;0.90;99.90;;;;;;5021260;28;20041;-89
2023/02/10 01:33:54;;;;;;;0.80;0.80;;;2.60;99.90;;;;;;5038022;28;20114;-90
2023/02/10 01:36:22;;;;;;;1.00;1.00;;;0.90;99.90;;;;;;5053738;28;20563;-89
2023/02/10 01:38:49;;;;;;;0.82;0.82;;;0.90;99.90;;;;;;5053654;28;20045;-87
2023/02/10 01:41:18;;;;;;;0.77;0.77;;;2.40;99.90;;;;;;5052133;28;20033;-87
2023/02/10 01:44:26;;;;;;;0.85;0.85;;;1.70;99.90;;;;;;5052052;28;20037;-89
2023/02/10 01:46:53;;;;;;;0.60;0.60;;;1.00;99.90;;;;;;5034842;28;20393;-89
2023/02/10 01:49:22;;;;;;;0.73;0.73;;;1.00;99.90;;;;;;5024451;28;20041;-89
2023/02/10 01:52:02;;;;;;;0.90;0.90;;;1.00;99.90;;;;;;5054660;28;20165;-90
2023/02/10 01:54:33;;;;;;;0.80;0.80;;;1.00;99.90;;;;;;5040216;28;20048;-91
2023/02/10 01:57:00;;;;;;;0.70;0.70;;;1.00;99.90;;;;;;5054571;28;20045;-89
2023/02/10 01:59:30;;;;;;;3.15;1.75;;;1.60;99.90;;;;;;5005933;28;20045;-92
2023/02/10 02:01:59;;;;;;;0.77;0.77;;;2.60;99.90;;;;;;5037840;28;20044;-91
2023/02/10 02:04:24;;;;;;;0.70;0.70;;;1.20;99.90;;;;;;5036321;28;20482;-91
2023/02/10 02:06:51;;;;;;;0.75;0.75;;;1.20;99.90;;;;;;5040216;28;20122;-91
2023/02/10 02:09:16;;;;;;;0.70;0.70;;;2.00;99.90;;;;;;5035399;28;20037;-90
2023/02/10 02:11:48;;;;;;;0.68;0.68;;;1.10;99.90;;;;;;5036462;28;20462;-89
2023/02/10 02:14:20;;;;;;;13.25;2.65;;;2.60;99.90;;;;;;5054244;28;20429;-90
2023/02/10 02:17:01;;;;;;;0.77;0.77;;;1.10;99.90;;;;;;5053017;28;20444;-89
2023/02/10 02:20:39;;;;;;;0.70;0.70;;;1.10;99.90;;;;;;5052341;28;20045;-88
2023/02/10 02:23:11;;;;;;;0.70;0.70;;;1.20;99.90;;;;;;5051353;28;20103;-89
2023/02/10 02:25:50;;;;;;;0.70;0.70;;;1.10;99.90;;;;;;5047401;28;20041;-89
2023/02/10 02:28:24;;;;;;;0.90;0.90;;;1.10;99.90;;;;;;5055277;28;20047;-87
2023/02/10 02:31:28;;;;;;;0.90;0.90;;;1.00;99.90;;;;;;5057964;28;20037;-88
2023/02/10 02:34:03;;;;;;;0.77;0.77;;;1.00;99.90;;;;;;5058985;28;20067;-89
2023/02/10 02:36:41;;;;;;;0.80;0.80;;;0.90;99.90;;;;;;5056319;28;20498;-87
2023/02/10 02:39:07;;;;;;;0.73;0.73;;;1.90;99.90;;;;;;5066540;28;20032;-89
2023/02/10 02:41:34;;;;;;;0.80;0.80;;;1.90;99.90;;;;;;5063175;28;20076;-88
2023/02/10 02:44:02;;;;;;;0.75;0.75;;;0.90;99.90;;;;;;5039749;28;20045;-89
2023/02/10 02:47:07;;;;;;;2.38;2.00;;;0.80;99.90;;;;;;5057394;28;20041;-89
2023/02/10 02:49:56;;;;;;;1.00;1.00;;;0.70;99.90;;;;;;5053501;28;20057;-88
2023/02/10 02:52:35;;;;;;;0.80;0.80;;;0.70;99.90;;;;;;5055509;28;20036;-90
2023/02/10 02:55:10;;;;;;;0.77;0.77;;;0.70;99.90;;;;;;5050398;28;20517;-89
2023/02/10 02:57:51;;;;;;;0.80;0.80;;;0.80;99.90;;;;;;5032618;28;20060;-88
2023/02/10 03:00:22;;;;;;;0.68;0.68;;;0.80;99.90;;;;;;5043126;28;20091;-90
2023/02/10 03:02:49;;;;;;;0.80;0.80;;;0.80;99.90;;;;;;5040716;28;20083;-89
2023/02/10 03:05:23;;;;;;;0.85;0.85;;;2.00;99.90;;;;;;5003265;28;20106;-92
2023/02/10 03:07:50;;;;;;;0.70;0.70;;;0.90;99.90;;;;;;5055142;28;20517;-90
2023/02/10 03:10:16;;;;;;;0.80;0.80;;;0.90;99.90;;;;;;5022908;28;20118;-90
2023/02/10 03:12:42;;;;;;;1.10;1.10;;;1.00;99.90;;;;;;5038658;28;20039;-90
2023/02/10 03:15:08;;;;;;;0.70;0.70;;;1.00;99.90;;;;;;5022279;28;20405;-90
2023/02/10 03:17:34;;;;;;;0.80;0.80;;;1.00;99.90;;;;;;5056590;28;20045;-91
2023/02/10 03:20:00;;;;;;;3.13;1.83;;;2.00;99.90;;;;;;5023256;28;20041;-87
2023/02/10 03:22:28;;;;;;;2.92;1.38;;;0.90;99.90;;;;;;5039768;28;20048;-89
2023/02/10 03:24:54;;;;;;;0.90;0.90;;;0.90;99.90;;;;;;5055532;28;20106;-90
2023/02/10 03:27:20;;;;;;;1.35;1.25;;;2.30;99.90;;;;;;5040373;28;20037;-89
2023/02/10 03:29:48;;;;;;;0.80;0.80;;;1.80;99.90;;;;;;5022843;28;20379;-90
2023/02/10 03:32:14;;;;;;;0.60;0.60;;;0.90;99.90;;;;;;5020374;28;20044;-90
2023/02/10 03:34:40;;;;;;;0.70;0.70;;;0.80;99.90;;;;;;5059288;28;20502;-90
2023/02/10 03:37:06;;;;;;;0.80;0.80;;;0.80;99.90;;;;;;5043345;28;20045;-90
2023/02/10 03:39:32;;;;;;;0.50;0.50;;;2.40;99.90;;;;;;5042024;28;20043;-89
2023/02/10 03:41:58;;;;;;;0.73;0.73;;;2.00;99.90;;;;;;5024016;28;20099;-89
2023/02/10 03:44:24;;;;;;;0.45;0.45;;;1.30;99.90;;;;;;5017973;28;20046;-90
2023/02/10 03:46:49;;;;;;;0.52;0.52;;;0.80;99.90;;;;;;5039400;28;20044;-91
2023/02/10 03:49:15;;;;;;;0.90;0.90;;;1.40;99.90;;;;;;5007183;28;20063;-91
2023/02/10 03:51:41;;;;;;;0.80;0.80;;;2.20;99.90;;;;;;5023159;28;20091;-88
2023/02/10 03:54:06;;;;;;;0.80;0.80;;;0.90;99.90;;;;;;5038502;28;20505;-89
2023/02/10 03:56:32;;;;;;;0.80;0.80;;;2.20;99.90;;;;;;5041012;28;20056;-88
2023/02/10 03:59:01;;;;;;;1.67;1.55;;;1.10;99.90;;;;;;5041334;28;20127;-90
2023/02/10 04:01:26;;;;;;;0.47;0.47;;;0.90;99.90;;;;;;5059230;28;20032;-89
2023/02/10 04:03:52;;;;;;;0.70;0.70;;;1.60;99.90;;;;;;5048944;28;20494;-89
2023/02/10 04:06:24;;;;;;;0.80;0.80;;;2.20;99.90;;;;;;5025279;28;20091;-89
2023/02/10 04:08:49;;;;;;;1.23;1.23;;;0.90;99.90;;;;;;5035544;28;20072;-90
2023/02/10 04:11:15;;;;;;;1.52;1.45;;;0.90;99.90;;;;;;5005986;28;20048;-89
2023/02/10 04:13:41;;;;;;;0.70;0.70;;;1.00;99.90;;;;;;5059057;28;20120;-88
2023/02/10 04:16:10;;;;;;;0.70;0.70;;;1.00;99.90;;;;;;5035932;28;20124;-88
2023/02/10 04:18:37;;;;;;;0.60;0.60;;;1.60;99.90;;;;;;5052754;28;20171;-89
2023/02/10 04:21:06;;;;;;;0.60;0.60;;;1.10;99.90;;;;;;5019419;28;20045;-89
2023/02/10 04:23:32;;;;;;;0.70;0.70;;;1.10;99.90;;;;;;5036268;28;20076;-90
2023/02/10 04:25:59;;;;;;;0.70;0.70;;;1.10;99.90;;;;;;5032082;28;20051;-89
2023/02/10 04:28:25;;;;;;;0.68;0.68;;;2.40;99.90;;;;;;5020348;28;20383;-91
2023/02/10 04:30:57;;;;;;;0.75;0.75;;;2.30;99.90;;;;;;5037474;28;20033;-90
2023/02/10 04:33:24;;;;;;;0.70;0.70;;;1.10;99.90;;;;;;5034795;28;20503;-89
2023/02/10 04:35:52;;;;;;;0.60;0.60;;;1.00;99.90;;;;;;5024116;28;20828;-90
2023/02/10 04:38:18;;;;;;;0.77;0.77;;;1.00;99.90;;;;;;5035477;28;20033;-91
2023/02/10 04:40:44;;;;;;;0.47;0.47;;;1.00;99.90;;;;;;5036991;28;20444;-90
2023/02/10 04:43:11;;;;;;;0.70;0.70;;;1.60;99.90;;;;;;5053730;28;20040;-90
2023/02/10 04:45:38;;;;;;;0.70;0.70;;;2.20;99.90;;;;;;5028313;28;20056;-90
2023/02/10 04:48:04;;;;;;;1.00;1.00;;;1.20;99.90;;;;;;5046516;28;20037;-90
2023/02/10 04:50:29;;;;;;;0.60;0.60;;;1.90;99.90;;;;;;5053521;28;20040;-90
2023/02/10 04:52:55;;;;;;;0.70;0.70;;;1.30;99.90;;;;;;5020446;28;20101;-89
2023/02/10 04:55:21;;;;;;;0.60;0.60;;;2.00;99.90;;;;;;5034217;28;20130;-90
2023/02/10 04:57:47;;;;;;;0.73;0.73;;;2.50;99.90;;;;;;5000399;28;20059;-92
2023/02/10 05:00:13;;;;;;;1.05;1.05;;;1.30;99.90;;;;;;4985001;28;20037;-91
2023/02/10 05:02:39;;;;;;;0.90;0.90;;;0.90;99.90;;;;;;5041560;28;20487;-90
2023/02/10 05:05:05;;;;;;;1.00;1.00;;;1.70;99.90;;;;;;5003434;28;20038;-93
2023/02/10 05:07:37;;;;;;;0.70;0.70;;;1.00;99.90;;;;;;5021191;28;20041;-90
2023/02/10 05:10:03;;;;;;;0.60;0.60;;;1.10;99.90;;;;;;5021903;28;20055;-92
2023/02/10 05:12:29;;;;;;;1.75;1.65;;;0.90;99.90;;;;;;5053422;28;20039;-93
2023/02/10 05:14:55;;;;;;;0.80;0.80;;;1.00;99.90;;;;;;5020186;28;20437;-92
2023/02/10 05:17:21;;;;;;;0.70;0.70;;;2.30;99.90;;;;;;5036756;28;20099;-91
2023/02/10 05:19:46;;;;;;;13.05;2.65;;;2.40;99.90;;;;;;5001702;28;20042;-91
2023/02/10 05:22:12;;;;;;;0.70;0.70;;;2.10;99.90;;;;;;5012285;28;20045;-91
2023/02/10 05:24:38;;;;;;;0.70;0.70;;;1.10;99.90;;;;;;5039492;28;20456;-91
2023/02/10 05:27:04;;;;;;;1.13;1.13;;;2.40;99.90;;;;;;5037608;28;20560;-91
2023/02/10 05:29:29;;;;;;;0.70;0.70;;;1.10;99.90;;;;;;5023632;28;20037;-91
2023/02/10 05:31:55;;;;;;;1.38;1.35;;;1.40;99.90;;;;;;5030017;28;20096;-92
2023/02/10 05:34:26;;;;;;;0.77;0.77;;;1.30;99.90;;;;;;5054585;28;20122;-91
2023/02/10 05:36:57;;;;;;;;;;;1.20;99.90;;;;;;5053147;28;20051;-88
2023/02/10 05:39:23;;;;;;;5.22;5.00;;;1.30;99.90;;;;;;5052137;28;19924;-87
2023/02/10 05:41:50;;;;;;;1.42;1.42;;;1.60;99.90;;;;;;5014232;28;20051;-87
2023/02/10 05:44:16;;;;;;;0.60;0.60;;;1.40;99.90;;;;;;5031089;28;20489;-88
2023/02/10 05:46:41;;;;;;;1.67;1.58;;;1.50;99.90;;;;;;5054945;28;20045;-88
2023/02/10 05:49:07;;;;;;;0.60;0.60;;;1.50;99.90;;;;;;5033633;28;20033;-92
2023/02/10 05:51:33;;;;;;;0.70;0.70;;;2.10;99.90;;;;;;5026630;28;20037;-89
2023/02/10 05:53:58;;;;;;;0.60;0.60;;;1.50;99.90;;;;;;5029426;28;20025;-93
2023/02/10 05:56:24;;;;;;;0.80;0.80;;;2.50;99.90;;;;;;5041682;28;20060;-92
2023/02/10 05:58:50;;;;;;;0.70;0.70;;;1.50;99.90;;;;;;5025366;28;20049;-90
2023/02/10 06:01:16;;;;;;;1.52;1.48;;;0.50;99.90;;;;;;5017551;28;20048;-90
2023/02/10 06:03:41;;;;;;;1.35;1.35;;;2.80;99.90;;;;;;5044775;28;20048;-90
2023/02/10 06:06:10;;;;;;;0.63;0.63;;;1.60;99.90;;;;;;5021595;28;20529;-93
2023/02/10 06:08:36;;;;;;;0.70;0.70;;;2.20;99.90;;;;;;5008947;28;20498;-92
2023/02/10 06:11:02;;;;;;;0.80;0.80;;;2.00;99.90;;;;;;5007510;28;20044;-90
2023/02/10 06:13:27;;;;;;;2.33;1.25;;;1.60;99.90;;;;;;5023875;28;20493;-88
2023/02/10 06:15:53;;;;;;;1.50;1.40;;;3.30;99.90;;;;;;5022990;28;20124;-90
2023/02/10 06:18:19;;;;;;;0.60;0.60;;;1.90;99.90;;;;;;5041778;28;20049;-92
2023/02/10 06:20:50;;;;;;;0.70;0.70;;;1.80;99.90;;;;;;5046911;28;20021;-90
2023/02/10 06:23:17;;;;;;;0.70;0.70;;;2.10;99.90;;;;;;5019942;28;20037;-91
2023/02/10 06:25:43;;;;;;;0.73;0.73;;;2.30;99.90;;;;;;5039095;28;20440;-91
2023/02/10 06:28:08;;;;;;;0.75;0.75;;;3.30;99.90;;;;;;5025601;28;20072;-90
2023/02/10 06:30:34;;;;;;;0.70;0.70;;;2.60;99.90;;;;;;5035815;28;20041;-89
2023/02/10 06:33:00;;;;;;;1.00;1.00;;;2.40;99.90;;;;;;5035888;28;20041;-87
2023/02/10 06:35:26;;;;;;;0.82;0.82;;;3.40;99.90;;;;;;5018654;28;20124;-87
2023/02/10 06:37:52;;;;;;;0.70;0.70;;;1.90;99.90;;;;;;5019768;28;20064;-86
2023/02/10 06:40:17;;;;;;;1.70;1.60;;;2.10;99.90;;;;;;5019088;28;20425;-87
2023/02/10 06:42:43;;;;;;;1.42;1.40;;;2.00;99.90;;;;;;5035089;28;20095;-88
2023/02/10 06:45:09;;;;;;;0.70;0.70;;;2.00;99.90;;;;;;5020577;28;20195;-86
2023/02/10 06:47:35;;;;;;;0.95;0.95;;;2.80;99.90;;;;;;5034804;28;20120;-87
2023/02/10 06:50:02;;;;;;;0.70;0.70;;;2.00;99.90;;;;;;5053320;28;20056;-86
2023/02/10 06:52:28;;;;;;;0.70;0.70;;;2.10;99.90;;;;;;5054246;28;20478;-86
2023/02/10 06:54:54;;;;;;;0.70;0.70;;;2.20;99.90;;;;;;5039811;28;20052;-86
2023/02/10 06:57:19;;;;;;;0.90;0.90;;;2.10;99.90;;;;;;5052897;28;20440;-86
2023/02/10 06:59:45;;;;;;;0.60;0.60;;;2.10;99.90;;;;;;5054914;28;20055;-87
2023/02/10 07:02:12;;;;;;;1.00;1.00;;;2.30;99.90;;;;;;5051590;28;20045;-85
2023/02/10 07:04:38;;;;;;;0.90;0.90;;;2.10;99.90;;;;;;5053500;28;20188;-86
2023/02/10 07:07:04;;;;;;;0.52;0.52;;;2.20;99.90;;;;;;5005434;28;20033;-87
2023/02/10 07:09:40;;;;;;;0.75;0.75;;;2.90;99.90;;;;;;5049057;28;20478;-87
2023/02/10 07:12:06;;;;;;;0.98;0.98;;;2.20;99.90;;;;;;5035937;28;20048;-87
2023/02/10 07:14:31;;;;;;;1.75;1.42;;;2.20;99.90;;;;;;5052133;28;20080;-88
2023/02/10 07:16:57;;;;;;;0.60;0.60;;;2.20;99.90;;;;;;5024702;28;20161;-87
2023/02/10 07:19:23;;;;;;;0.60;0.60;;;2.80;99.90;;;;;;5047065;28;20048;-87
2023/02/10 07:21:49;;;;;;;0.88;0.88;;;2.20;99.90;;;;;;5002765;28;20131;-86
2023/02/10 07:24:16;;;;;;;0.60;0.60;;;2.30;99.90;;;;;;5034689;28;20457;-87
2023/02/10 07:26:41;;;;;;;41.60;4.10;;;2.30;99.90;;;;;;5037227;28;20056;-87
2023/02/10 07:29:07;;;;;;;0.77;0.77;;;2.30;99.90;;;;;;5052732;28;20037;-87
2023/02/10 07:31:35;;;;;;;0.90;0.90;;;2.40;99.90;;;;;;5019761;28;20497;-87
2023/02/10 07:34:01;;;;;;;0.80;0.80;;;2.60;99.90;;;;;;5052171;28;20045;-87
2023/02/10 07:36:28;;;;;;;1.23;1.13;;;3.20;99.90;;;;;;5019229;28;20375;-87
2023/02/10 07:38:53;;;;;;;0.80;0.80;;;2.40;99.90;;;;;;5053037;28;20048;-87
2023/02/10 07:41:19;;;;;;;1.45;1.35;;;3.00;99.90;;;;;;5019140;28;20090;-87
2023/02/10 07:43:45;;;;;;;0.82;0.82;;;2.40;99.90;;;;;;5036217;28;20047;-87
2023/02/10 07:46:10;;;;;;;0.68;0.68;;;2.40;99.90;;;;;;5039908;28;20037;-86
2023/02/10 07:48:36;;;;;;;0.80;0.80;;;2.40;99.90;;;;;;5054555;28;20041;-88
2023/02/10 07:51:02;;;;;;;1.52;1.42;;;2.40;99.90;;;;;;5036934;28;20033;-87
2023/02/10 07:53:28;;;;;;;0.88;0.88;;;2.50;99.90;;;;;;5020710;28;20059;-88
2023/02/10 07:55:54;;;;;;;1.25;1.25;;;2.50;99.90;;;;;;5060870;28;20446;-87
2023/02/10 07:58:19;;;;;;;0.70;0.70;;;2.50;99.90;;;;;;5059099;28;20061;-88
2023/02/10 08:00:45;;;;;;;1.00;1.00;;;2.60;99.90;;;;;;5034079;28;20127;-88
2023/02/10 08:03:14;;;;;;;0.70;0.70;;;2.70;99.90;;;;;;5053692;28;20468;-88
2023/02/10 08:05:41;;;;;;;1.55;1.00;;;3.40;99.90;;;;;;5036656;28;20037;-88
2023/02/10 08:08:09;;;;;;;1.10;1.05;;;3.00;99.90;;;;;;5054272;28;20044;-88
2023/02/10 08:10:41;;;;;;;0.80;0.75;;;2.80;99.90;;;;;;5032444;28;20044;-87
2023/02/10 08:13:07;;;;;;;0.70;0.70;;;2.90;99.90;;;;;;5041917;28;20043;-87
2023/02/10 08:15:33;;;;;;;1.63;1.52;;;2.90;99.90;;;;;;5071048;28;20021;-87
2023/02/10 08:18:01;;;;;;;0.60;0.60;;;3.70;99.90;;;;;;5052683;28;20545;-88
2023/02/10 08:20:27;;;;;;;0.90;0.90;;;3.00;99.90;;;;;;5059261;28;20063;-88
2023/02/10 08:22:58;;;;;;;0.70;0.70;;;3.10;99.90;;;;;;5044437;28;20390;-88
2023/02/10 08:25:23;;;;;;;0.73;0.73;;;3.10;99.90;;;;;;5040508;28;20405;-88
2023/02/10 08:27:49;;;;;;;0.80;0.80;;;3.10;99.90;;;;;;5044429;28;20037;-88
2023/02/10 08:30:15;;;;;;;0.70;0.70;;;3.10;99.90;;;;;;5059494;28;20053;-87
2023/02/10 08:32:41;;;;;;;0.90;0.90;;;3.30;99.90;;;;;;5035270;28;20101;-88
2023/02/10 08:35:07;;;;;;;2.70;1.45;;;3.10;99.90;;;;;;5021664;28;20485;-87
2023/02/10 08:37:32;;;;;;;0.93;0.93;;;3.10;99.90;;;;;;5052813;28;20128;-87
2023/02/10 08:40:05;;;;;;;0.90;0.90;;;3.60;99.90;;;;;;5045174;28;20059;-88
2023/02/10 08:42:32;;;;;;;0.70;0.70;;;3.20;99.90;;;;;;5039511;28;20079;-87
2023/02/10 08:44:58;;;;;;;0.60;0.60;;;3.20;99.90;;;;;;5031151;28;20390;-88
2023/02/10 08:47:25;;;;;;;0.93;0.93;;;3.20;99.90;;;;;;5018659;28;20095;-88
2023/02/10 08:49:52;;;;;;;0.60;0.60;;;3.20;99.90;;;;;;5036933;28;20035;-88
2023/02/10 08:52:17;;;;;;;2.35;2.25;;;3.20;99.90;;;;;;5062694;28;20032;-87
2023/02/10 08:54:43;;;;;;;0.77;0.77;;;3.20;99.90;;;;;;5031706;28;20047;-88
2023/02/10 08:57:09;;;;;;;0.60;0.60;;;3.20;99.90;;;;;;5015052;28;20498;-87
2023/02/10 08:59:35;;;;;;;;;;;3.30;99.90;;;;;;5052173;28;20107;-87
2023/02/10 09:02:02;;;;;;;0.70;0.70;;;3.30;99.90;;;;;;5051286;28;19923;-87
2023/02/10 09:04:28;;;;;;;0.90;0.90;;;3.80;99.90;;;;;;5065753;28;20049;-88
2023/02/10 09:06:54;;;;;;;0.75;0.75;;;3.50;99.90;;;;;;5052174;28;20385;-88
2023/02/10 09:09:24;;;;;;;2.58;1.55;;;3.60;99.90;;;;;;5029069;28;20040;-87
2023/02/10 09:11:51;;;;;;;0.70;0.70;;;3.70;99.90;;;;;;5032915;28;20029;-87
2023/02/10 09:14:17;;;;;;;0.50;0.50;;;4.50;99.90;;;;;;5042935;28;20056;-90
2023/02/10 09:16:43;;;;;;;1.25;1.20;;;3.80;99.90;;;;;;5035301;28;20099;-87
2023/02/10 09:19:09;;;;;;;;;;;3.90;99.90;;;;;;5050833;28;20043;-87
2023/02/10 09:21:35;;;;;;;0.60;0.60;;;3.90;99.90;;;;;;5053425;28;19984;-88
2023/02/10 09:24:00;;;;;;;0.50;0.50;;;4.00;99.90;;;;;;5051099;28;20878;-88
2023/02/10 09:26:26;;;;;;;1.00;1.00;;;4.00;99.90;;;;;;5056381;28;20045;-85
2023/02/10 09:28:52;;;;;;;0.95;0.95;;;4.10;99.90;;;;;;5045361;28;20065;-87
2023/02/10 09:31:18;;;;;;;0.60;0.60;;;4.10;99.90;;;;;;5035479;28;20118;-88
2023/02/10 09:33:44;;;;;;;1.80;1.70;;;4.20;99.90;;;;;;5052255;28;20037;-87
2023/02/10 09:36:15;;;;;;;0.77;0.77;;;4.20;99.90;;;;;;5050378;28;20094;-89
2023/02/10 09:38:41;;;;;;;1.00;1.00;;;4.30;99.90;;;;;;5042466;28;20041;-88
2023/02/10 09:41:09;;;;;;;0.70;0.70;;;5.10;99.90;;;;;;5009300;28;20044;-89
2023/02/10 09:43:44;;;;;;;1.58;1.48;;;4.50;99.90;;;;;;5009708;28;20061;-86
2023/02/10 09:46:19;;;;;;;0.80;0.80;;;4.90;99.90;;;;;;5011069;28;20133;-85
2023/02/10 09:49:32;;;;;;;0.60;0.60;;;4.60;99.90;;;;;;5029744;28;20073;-87
2023/02/10 09:52:37;;;;;;;1.25;1.25;;;4.60;99.90;;;;;;4990343;28;20050;-87
2023/02/10 09:55:29;;;;;;;0.60;0.60;;;4.60;99.90;;;;;;5031239;28;20190;-85
2023/02/10 09:58:00;;;;;;;4.78;1.35;;;4.70;99.90;;;;;;5017117;28;20052;-87
2023/02/10 10:00:39;;;;;;;0.70;0.70;;;4.70;99.90;;;;;;5032000;28;20456;-87
2023/02/10 10:03:10;;;;;;;0.70;0.70;;;4.80;99.90;;;;;;5031008;28;20055;-88
2023/02/10 10:06:02;;;;;;;0.70;0.70;;;4.70;99.90;;;;;;5031259;28;20662;-86
2023/02/10 10:08:41;;;;;;;5.85;1.08;;;4.80;99.90;;;;;;5017612;28;20049;-86
2023/02/10 10:11:29;;;;;;;0.90;0.90;;;4.90;99.90;;;;;;5032371;28;20037;-87
2023/02/10 10:13:56;;;;;;;0.50;0.50;;;4.90;99.90;;;;;;5029615;28;20041;-86
2023/02/10 10:16:54;;;;;;;0.77;0.77;;;5.00;99.90;;;;;;5030298;28;20076;-86
2023/02/10 10:19:28;;;;;;;0.60;0.60;;;5.10;99.90;;;;;;5003031;28;20402;-87
2023/02/10 10:22:14;;;;;;;1.42;1.42;;;5.20;99.90;;;;;;5032432;28;20055;-86
2023/02/10 10:24:52;;;;;;;0.80;0.80;;;5.30;99.90;;;;;;5033377;28;20056;-86
2023/02/10 10:27:33;;;;;;;10.98;1.60;;;5.40;99.90;;;;;;5032602;28;20049;-87
2023/02/10 10:30:14;;;;;;;1.05;1.05;;;5.40;99.90;;;;;;5038808;28;20055;-87
2023/02/10 10:32:52;;;;;;;1.10;1.10;;;5.50;99.90;;;;;;5018048;28;20049;-87
2023/02/10 10:35:23;;;;;;;0.98;0.98;;;5.70;99.90;;;;;;5027701;28;20049;-87
2023/02/10 10:37:50;;;;;;;0.70;0.70;;;5.60;99.90;;;;;;5047459;28;20061;-85
2023/02/10 10:40:32;;;;;;;1.70;1.58;;;5.70;99.90;;;;;;5035559;28;20489;-86
2023/02/10 10:43:02;;;;;;;0.90;0.90;;;5.70;99.90;;;;;;5053595;28;20099;-85
2023/02/10 10:45:46;;;;;;;0.50;0.50;;;5.70;99.90;;;;;;5025009;28;20091;-88
2023/02/10 10:48:19;;;;;;;1.15;1.15;;;5.80;99.90;;;;;;5032389;28;20045;-87
2023/02/10 10:50:45;;;;;;;4.43;3.53;;;5.80;99.90;;;;;;5015013;28;20060;-86
2023/02/10 10:53:18;;;;;;;1.40;1.33;;;6.30;99.90;;;;;;5018706;28;20045;-86
2023/02/10 10:55:48;;;;;;;1.00;0.98;;;5.90;99.90;;;;;;5029586;28;20529;-86
2023/02/10 10:58:39;;;;;;;1.85;1.75;;;5.90;99.90;;;;;;5034601;28;20306;-86
2023/02/10 11:01:06;;;;;;;1.52;1.52;;;6.00;99.90;;;;;;5028058;28;20048;-87
2023/02/10 11:03:33;;;;;;;1.05;0.95;;;5.90;99.90;;;;;;5010827;28;20042;-88
2023/02/10 11:06:18;;;;;;;0.70;0.70;;;5.90;99.90;;;;;;5026371;28;20095;-87
2023/02/10 11:08:51;;;;;;;18.70;6.25;;;6.00;99.90;;;;;;5011422;28;20135;-86
2023/02/10 11:11:17;;;;;;;1.85;1.75;;;6.10;99.90;;;;;;5011686;28;20045;-87
2023/02/10 11:13:51;;;;;;;;;;;6.10;99.90;;;;;;5029813;28;20045;-86
2023/02/10 11:16:17;;;;;;;0.75;0.75;;;6.20;99.90;;;;;;5049190;28;19920;-85
2023/02/10 11:18:54;;;;;;;0.73;0.73;;;6.20;99.90;;;;;;5024617;28;20045;-88
2023/02/10 11:21:20;;;;;;;0.90;0.90;;;6.30;99.90;;;;;;5033840;28;20473;-87
2023/02/10 11:23:52;;;;;;;0.60;0.60;;;6.30;99.90;;;;;;5027754;28;20797;-86
2023/02/10 11:26:26;;;;;;;0.88;0.80;;;6.30;99.90;;;;;;5037000;28;20049;-87
2023/02/10 11:28:52;;;;;;;0.98;0.85;;;6.40;99.90;;;;;;5012856;28;20041;-87
2023/02/10 11:31:21;;;;;;;1.13;1.02;;;6.50;99.90;;;;;;5031849;28;20686;-87
2023/02/10 11:33:58;;;;;;;1.10;1.10;;;6.70;99.90;;;;;;5037358;28;20505;-87
2023/02/10 11:36:40;;;;;;;0.68;0.68;;;6.80;99.90;;;;;;5027543;28;20037;-86
2023/02/10 11:39:24;;;;;;;0.65;0.65;;;7.00;99.90;;;;;;5029969;28;20057;-87
2023/02/10 11:41:51;;;;;;;0.60;0.60;;;7.20;99.90;;;;;;5015076;28;20079;-86
2023/02/10 11:44:35;;;;;;;1.95;1.25;;;7.30;99.90;;;;;;5015894;28;20115;-87
2023/02/10 11:47:04;;;;;;;0.63;0.63;;;7.30;99.90;;;;;;5014407;28;20513;-87
2023/02/10 11:49:32;;;;;;;0.93;0.93;;;7.50;99.90;;;;;;5022764;28;20053;-86
2023/02/10 11:52:00;;;;;;;2.35;2.25;;;7.60;99.90;;;;;;5029544;28;20516;-87
2023/02/10 11:54:26;;;;;;;0.70;0.70;;;7.60;99.90;;;;;;5029881;28;20081;-87
2023/02/10 12:00:33;;;;;;;0.90;0.90;;;7.70;99.90;;;;;;5031485;28;20055;-86
2023/02/10 12:03:46;;;;;;;0.70;0.70;;;7.80;99.90;;;;;;5029160;28;20037;-86
2023/02/10 12:06:36;;;;;;;0.73;0.73;;;7.90;99.90;;;;;;5024022;28;20114;-89
2023/02/10 12:09:12;;;;;;;1.27;1.27;;;7.90;99.90;;;;;;5031285;28;20115;-86
2023/02/10 12:11:57;;;;;;;0.57;0.57;;;7.70;99.90;;;;;;5020958;28;20075;-86
2023/02/10 12:14:38;;;;;;;1.98;1.88;;;7.80;99.90;;;;;;5025824;28;20167;-85
2023/02/10 12:17:22;;;;;;;1.15;1.15;;;7.80;99.90;;;;;;5025501;28;20054;-87
2023/02/10 12:20:07;;;;;;;1.25;1.15;;;8.00;99.90;;;;;;5035096;28;20049;-86
2023/02/10 12:22:47;;;;;;;0.70;0.70;;;8.10;99.90;;;;;;5034693;28;20041;-88
2023/02/10 12:25:23;;;;;;;0.75;0.75;;;8.30;99.90;;;;;;5029810;28;20041;-86
2023/02/10 12:28:00;;;;;;;0.50;0.50;;;8.40;99.90;;;;;;5033678;28;20413;-85
2023/02/10 12:31:10;;;;;;;0.82;0.82;;;8.40;99.90;;;;;;5031090;28;20044;-88
2023/02/10 12:33:42;;;;;;;0.50;0.50;;;8.30;99.90;;;;;;4993749;28;20171;-86
2023/02/10 12:36:34;;;;;;;0.50;0.50;;;8.20;99.90;;;;;;5031457;28;20136;-88
2023/02/10 12:39:20;;;;;;;0.52;0.52;;;8.20;99.90;;;;;;5032589;28;20502;-86
2023/02/10 12:42:08;;;;;;;0.93;0.93;;;8.20;99.90;;;;;;5042967;28;20061;-87
2023/02/10 12:44:53;;;;;;;0.60;0.60;;;8.30;99.90;;;;;;5033669;28;20060;-85
2023/02/10 12:47:38;;;;;;;1.13;1.13;;;8.20;99.90;;;;;;5043970;28;20040;-87
2023/02/10 12:50:22;;;;;;;1.95;1.67;;;8.10;99.90;;;;;;5038294;28;20041;-86
2023/02/10 12:53:13;;;;;;;9.32;1.80;;;8.10;99.90;;;;;;5031036;28;20129;-88
2023/02/10 12:55:39;;;;;;;1.33;1.30;;;8.10;99.90;;;;;;5031670;28;20512;-88
2023/02/10 12:58:40;;;;;;;1.35;1.35;;;8.20;99.90;;;;;;5039087;28;20065;-85
2023/02/10 13:01:47;;;;;;;0.60;0.60;;;8.30;99.90;;;;;;5039094;28;20061;-87
2023/02/10 13:04:45;;;;;;;0.90;0.90;;;8.30;99.90;;;;;;4989619;28;20126;-86
2023/02/10 13:07:13;;;;;;;0.50;0.50;;;8.30;99.90;;;;;;5030933;28;20053;-87
2023/02/10 13:09:45;;;;;;;0.90;0.90;;;8.20;99.90;;;;;;5016442;28;20083;-86
2023/02/10 13:12:26;;;;;;;0.50;0.50;;;8.20;99.90;;;;;;5030349;28;20055;-86
2023/02/10 13:14:59;;;;;;;1.23;0.95;;;8.10;99.90;;;;;;5051780;28;20112;-87
2023/02/10 13:17:27;;;;;;;0.50;0.50;;;8.00;99.90;;;;;;5016115;28;20716;-87
2023/02/10 13:20:00;;;;;;;0.60;0.60;;;8.00;99.90;;;;;;5006888;28;20062;-86